sensor_id;sensor_type;location;lat;lon;timestamp;P1;durP1;ratioP1;P2;durP2;ratioP2
41799;SDS011;27468;47.460;19.034;2023-02-28T00:02:07;11.40;;;6.17;;
41799;SDS011;27468;47.460;19.034;2023-02-28T00:04:32;13.43;;;6.90;;
41799;SDS011;27468;47.460;19.034;2023-02-28T00:06:57;11.40;;;6.03;;
41799;SDS011;27468;47.460;19.034;2023-02-28T00:09:23;11.20;;;6.53;;
41799;SDS011;27468;47.460;19.034;2023-02-28T00:11:48;10.40;;;6.53;;
41799;SDS011;27468;47.460;19.034;2023-02-28T00:14:14;9.57;;;5.83;;
41799;SDS011;27468;47.460;19.034;2023-02-28T00:16:39;10.77;;;7.03;;
41799;SDS011;27468;47.460;19.034;2023-02-28T00:19:04;11.27;;;6.53;;
41799;SDS011;27468;47.460;19.034;2023-02-28T00:21:30;11.40;;;7.20;;
41799;SDS011;27468;47.460;19.034;2023-02-28T00:23:55;12.13;;;7.00;;
41799;SDS011;27468;47.460;19.034;2023-02-28T00:26:21;11.93;;;6.37;;
41799;SDS011;27468;47.460;19.034;2023-02-28T00:28:46;9.90;;;6.43;;
41799;SDS011;27468;47.460;19.034;2023-02-28T00:31:11;11.43;;;6.47;;
41799;SDS011;27468;47.460;19.034;2023-02-28T00:33:37;12.67;;;6.13;;
41799;SDS011;27468;47.460;19.034;2023-02-28T00:36:06;11.17;;;6.00;;
41799;SDS011;27468;47.460;19.034;2023-02-28T00:38:34;10.80;;;6.20;;
41799;SDS011;27468;47.460;19.034;2023-02-28T00:41:00;12.63;;;6.37;;
41799;SDS011;27468;47.460;19.034;2023-02-28T00:43:29;11.70;;;7.03;;
41799;SDS011;27468;47.460;19.034;2023-02-28T00:45:55;11.83;;;6.30;;
41799;SDS011;27468;47.460;19.034;2023-02-28T00:48:21;10.60;;;6.57;;
41799;SDS011;27468;47.460;19.034;2023-02-28T00:50:48;10.03;;;7.03;;
41799;SDS011;27468;47.460;19.034;2023-02-28T00:53:14;14.37;;;7.10;;
41799;SDS011;27468;47.460;19.034;2023-02-28T00:55:40;11.27;;;6.57;;
41799;SDS011;27468;47.460;19.034;2023-02-28T00:58:05;10.77;;;6.47;;
41799;SDS011;27468;47.460;19.034;2023-02-28T01:00:30;10.53;;;6.17;;
41799;SDS011;27468;47.460;19.034;2023-02-28T01:02:56;9.73;;;5.57;;
41799;SDS011;27468;47.460;19.034;2023-02-28T01:05:21;11.93;;;6.33;;
41799;SDS011;27468;47.460;19.034;2023-02-28T01:07:47;10.30;;;6.17;;
41799;SDS011;27468;47.460;19.034;2023-02-28T01:10:12;10.13;;;6.60;;
41799;SDS011;27468;47.460;19.034;2023-02-28T01:12:38;12.53;;;6.40;;
41799;SDS011;27468;47.460;19.034;2023-02-28T01:15:03;11.20;;;6.30;;
41799;SDS011;27468;47.460;19.034;2023-02-28T01:17:29;9.20;;;5.83;;
41799;SDS011;27468;47.460;19.034;2023-02-28T01:19:55;11.13;;;6.47;;
41799;SDS011;27468;47.460;19.034;2023-02-28T01:22:21;10.47;;;6.60;;
41799;SDS011;27468;47.460;19.034;2023-02-28T01:24:47;9.37;;;5.53;;
41799;SDS011;27468;47.460;19.034;2023-02-28T01:27:13;11.20;;;6.13;;
41799;SDS011;27468;47.460;19.034;2023-02-28T01:29:38;18.60;;;6.50;;
41799;SDS011;27468;47.460;19.034;2023-02-28T01:32:04;10.17;;;7.03;;
41799;SDS011;27468;47.460;19.034;2023-02-28T01:34:29;8.53;;;5.70;;
41799;SDS011;27468;47.460;19.034;2023-02-28T01:36:55;11.67;;;5.87;;
41799;SDS011;27468;47.460;19.034;2023-02-28T01:39:20;11.07;;;6.03;;
41799;SDS011;27468;47.460;19.034;2023-02-28T01:41:46;10.65;;;5.80;;
41799;SDS011;27468;47.460;19.034;2023-02-28T01:49:40;12.77;;;6.33;;
41799;SDS011;27468;47.460;19.034;2023-02-28T01:52:06;13.07;;;6.13;;
41799;SDS011;27468;47.460;19.034;2023-02-28T01:54:33;11.05;;;5.80;;
41799;SDS011;27468;47.460;19.034;2023-02-28T01:59:33;9.77;;;5.60;;
41799;SDS011;27468;47.460;19.034;2023-02-28T02:02:03;10.50;;;6.23;;
41799;SDS011;27468;47.460;19.034;2023-02-28T02:04:32;10.43;;;5.97;;
41799;SDS011;27468;47.460;19.034;2023-02-28T02:07:03;9.35;;;6.00;;
41799;SDS011;27468;47.460;19.034;2023-02-28T02:09:29;9.97;;;5.43;;
41799;SDS011;27468;47.460;19.034;2023-02-28T02:11:54;11.37;;;5.77;;
41799;SDS011;27468;47.460;19.034;2023-02-28T02:17:25;11.73;;;5.95;;
41799;SDS011;27468;47.460;19.034;2023-02-28T02:34:31;12.75;;;7.50;;
41799;SDS011;27468;47.460;19.034;2023-02-28T02:40:11;12.97;;;7.13;;
41799;SDS011;27468;47.460;19.034;2023-02-28T02:48:15;10.40;;;5.90;;
41799;SDS011;27468;47.460;19.034;2023-02-28T02:50:45;10.10;;;5.83;;
41799;SDS011;27468;47.460;19.034;2023-02-28T02:53:16;10.35;;;5.85;;
41799;SDS011;27468;47.460;19.034;2023-02-28T02:55:47;12.40;;;5.77;;
41799;SDS011;27468;47.460;19.034;2023-02-28T02:58:19;8.73;;;5.13;;
41799;SDS011;27468;47.460;19.034;2023-02-28T03:00:53;7.63;;;4.90;;
41799;SDS011;27468;47.460;19.034;2023-02-28T03:03:22;8.73;;;4.70;;
41799;SDS011;27468;47.460;19.034;2023-02-28T03:05:54;9.93;;;4.68;;
41799;SDS011;27468;47.460;19.034;2023-02-28T03:08:22;9.17;;;4.63;;
41799;SDS011;27468;47.460;19.034;2023-02-28T03:10:48;9.30;;;4.47;;
41799;SDS011;27468;47.460;19.034;2023-02-28T03:16:16;9.03;;;4.77;;
41799;SDS011;27468;47.460;19.034;2023-02-28T03:19:24;9.03;;;5.10;;
41799;SDS011;27468;47.460;19.034;2023-02-28T03:24:45;10.30;;;5.83;;
41799;SDS011;27468;47.460;19.034;2023-02-28T03:27:24;10.60;;;6.43;;
41799;SDS011;27468;47.460;19.034;2023-02-28T03:29:52;9.17;;;5.37;;
41799;SDS011;27468;47.460;19.034;2023-02-28T03:32:28;11.30;;;5.83;;
41799;SDS011;27468;47.460;19.034;2023-02-28T03:35:23;10.93;;;6.17;;
41799;SDS011;27468;47.460;19.034;2023-02-28T03:37:55;11.83;;;6.37;;
41799;SDS011;27468;47.460;19.034;2023-02-28T03:40:27;10.48;;;6.28;;
41799;SDS011;27468;47.460;19.034;2023-02-28T03:42:56;12.00;;;6.30;;
41799;SDS011;27468;47.460;19.034;2023-02-28T03:45:28;12.10;;;6.33;;
41799;SDS011;27468;47.460;19.034;2023-02-28T03:48:01;11.93;;;6.70;;
41799;SDS011;27468;47.460;19.034;2023-02-28T03:50:36;12.30;;;6.47;;
41799;SDS011;27468;47.460;19.034;2023-02-28T03:55:45;12.93;;;5.80;;
41799;SDS011;27468;47.460;19.034;2023-02-28T03:58:22;10.13;;;5.73;;
41799;SDS011;27468;47.460;19.034;2023-02-28T04:01:05;8.90;;;5.27;;
41799;SDS011;27468;47.460;19.034;2023-02-28T04:03:36;10.80;;;5.78;;
41799;SDS011;27468;47.460;19.034;2023-02-28T04:06:03;8.43;;;5.27;;
41799;SDS011;27468;47.460;19.034;2023-02-28T04:08:31;7.70;;;4.97;;
41799;SDS011;27468;47.460;19.034;2023-02-28T04:10:58;9.73;;;5.17;;
41799;SDS011;27468;47.460;19.034;2023-02-28T04:13:33;10.77;;;5.10;;
41799;SDS011;27468;47.460;19.034;2023-02-28T04:15:59;9.43;;;5.53;;
41799;SDS011;27468;47.460;19.034;2023-02-28T04:18:24;10.03;;;5.43;;
41799;SDS011;27468;47.460;19.034;2023-02-28T04:20:50;10.20;;;5.60;;
41799;SDS011;27468;47.460;19.034;2023-02-28T04:23:15;8.30;;;5.53;;
41799;SDS011;27468;47.460;19.034;2023-02-28T04:25:40;9.67;;;5.13;;
41799;SDS011;27468;47.460;19.034;2023-02-28T04:28:06;9.03;;;5.20;;
41799;SDS011;27468;47.460;19.034;2023-02-28T04:30:31;9.23;;;5.33;;
41799;SDS011;27468;47.460;19.034;2023-02-28T04:32:57;8.93;;;5.37;;
41799;SDS011;27468;47.460;19.034;2023-02-28T04:35:23;9.87;;;5.47;;
41799;SDS011;27468;47.460;19.034;2023-02-28T04:37:48;11.10;;;5.83;;
41799;SDS011;27468;47.460;19.034;2023-02-28T04:40:14;9.03;;;5.53;;
41799;SDS011;27468;47.460;19.034;2023-02-28T04:42:39;10.53;;;5.73;;
41799;SDS011;27468;47.460;19.034;2023-02-28T04:45:05;9.63;;;6.23;;
41799;SDS011;27468;47.460;19.034;2023-02-28T04:47:31;9.13;;;5.60;;
41799;SDS011;27468;47.460;19.034;2023-02-28T04:49:56;8.90;;;5.37;;
41799;SDS011;27468;47.460;19.034;2023-02-28T04:52:22;9.60;;;5.40;;
41799;SDS011;27468;47.460;19.034;2023-02-28T04:54:47;9.97;;;5.27;;
41799;SDS011;27468;47.460;19.034;2023-02-28T04:57:12;9.67;;;5.50;;
41799;SDS011;27468;47.460;19.034;2023-02-28T04:59:38;9.63;;;5.07;;
41799;SDS011;27468;47.460;19.034;2023-02-28T05:02:03;9.83;;;5.63;;
41799;SDS011;27468;47.460;19.034;2023-02-28T05:04:32;8.70;;;5.23;;
41799;SDS011;27468;47.460;19.034;2023-02-28T05:06:59;8.57;;;5.47;;
41799;SDS011;27468;47.460;19.034;2023-02-28T05:09:25;11.27;;;5.87;;
41799;SDS011;27468;47.460;19.034;2023-02-28T05:11:51;8.20;;;5.10;;
41799;SDS011;27468;47.460;19.034;2023-02-28T05:14:16;11.90;;;5.70;;
41799;SDS011;27468;47.460;19.034;2023-02-28T05:16:42;9.27;;;5.50;;
41799;SDS011;27468;47.460;19.034;2023-02-28T05:19:07;8.90;;;5.27;;
41799;SDS011;27468;47.460;19.034;2023-02-28T05:21:33;10.63;;;5.33;;
41799;SDS011;27468;47.460;19.034;2023-02-28T05:24:01;8.33;;;4.67;;
41799;SDS011;27468;47.460;19.034;2023-02-28T05:26:37;6.97;;;5.20;;
41799;SDS011;27468;47.460;19.034;2023-02-28T05:29:04;7.80;;;4.90;;
41799;SDS011;27468;47.460;19.034;2023-02-28T05:31:30;9.67;;;5.20;;
41799;SDS011;27468;47.460;19.034;2023-02-28T05:33:56;9.53;;;5.30;;
41799;SDS011;27468;47.460;19.034;2023-02-28T05:36:21;9.03;;;5.20;;
41799;SDS011;27468;47.460;19.034;2023-02-28T05:38:47;9.20;;;5.50;;
41799;SDS011;27468;47.460;19.034;2023-02-28T05:41:13;7.57;;;5.10;;
41799;SDS011;27468;47.460;19.034;2023-02-28T05:43:38;8.90;;;4.97;;
41799;SDS011;27468;47.460;19.034;2023-02-28T05:46:05;9.97;;;5.80;;
41799;SDS011;27468;47.460;19.034;2023-02-28T05:48:32;10.43;;;6.00;;
41799;SDS011;27468;47.460;19.034;2023-02-28T05:50:59;10.13;;;5.80;;
41799;SDS011;27468;47.460;19.034;2023-02-28T05:53:24;11.47;;;6.50;;
41799;SDS011;27468;47.460;19.034;2023-02-28T05:55:50;10.57;;;5.60;;
41799;SDS011;27468;47.460;19.034;2023-02-28T05:58:15;10.27;;;5.50;;
41799;SDS011;27468;47.460;19.034;2023-02-28T06:00:40;11.87;;;6.30;;
41799;SDS011;27468;47.460;19.034;2023-02-28T06:03:06;9.43;;;5.53;;
41799;SDS011;27468;47.460;19.034;2023-02-28T06:05:31;9.73;;;5.57;;
41799;SDS011;27468;47.460;19.034;2023-02-28T06:07:58;12.07;;;6.10;;
41799;SDS011;27468;47.460;19.034;2023-02-28T06:10:23;10.40;;;5.07;;
41799;SDS011;27468;47.460;19.034;2023-02-28T06:12:48;9.53;;;5.10;;
41799;SDS011;27468;47.460;19.034;2023-02-28T06:15:14;10.90;;;5.37;;
41799;SDS011;27468;47.460;19.034;2023-02-28T06:17:41;10.60;;;6.57;;
41799;SDS011;27468;47.460;19.034;2023-02-28T06:20:08;10.83;;;6.07;;
41799;SDS011;27468;47.460;19.034;2023-02-28T06:22:35;9.97;;;5.67;;
41799;SDS011;27468;47.460;19.034;2023-02-28T06:25:02;9.30;;;5.50;;
41799;SDS011;27468;47.460;19.034;2023-02-28T06:27:28;9.20;;;5.40;;
41799;SDS011;27468;47.460;19.034;2023-02-28T06:29:54;9.60;;;5.50;;
41799;SDS011;27468;47.460;19.034;2023-02-28T06:32:20;10.57;;;5.20;;
41799;SDS011;27468;47.460;19.034;2023-02-28T06:34:46;7.90;;;5.00;;
41799;SDS011;27468;47.460;19.034;2023-02-28T06:37:12;8.88;;;5.57;;
41799;SDS011;27468;47.460;19.034;2023-02-28T06:39:37;8.53;;;4.77;;
41799;SDS011;27468;47.460;19.034;2023-02-28T06:42:03;11.97;;;5.47;;
41799;SDS011;27468;47.460;19.034;2023-02-28T06:44:28;10.75;;;5.63;;
41799;SDS011;27468;47.460;19.034;2023-02-28T06:47:00;10.13;;;5.43;;
41799;SDS011;27468;47.460;19.034;2023-02-28T06:49:27;14.97;;;5.70;;
41799;SDS011;27468;47.460;19.034;2023-02-28T06:51:53;10.70;;;5.67;;
41799;SDS011;27468;47.460;19.034;2023-02-28T06:54:19;10.83;;;5.90;;
41799;SDS011;27468;47.460;19.034;2023-02-28T06:56:44;10.82;;;6.07;;
41799;SDS011;27468;47.460;19.034;2023-02-28T06:59:09;10.40;;;5.63;;
41799;SDS011;27468;47.460;19.034;2023-02-28T07:01:35;10.43;;;5.97;;
41799;SDS011;27468;47.460;19.034;2023-02-28T07:04:01;10.07;;;5.43;;
41799;SDS011;27468;47.460;19.034;2023-02-28T07:06:26;9.77;;;5.18;;
41799;SDS011;27468;47.460;19.034;2023-02-28T07:08:53;8.95;;;5.47;;
41799;SDS011;27468;47.460;19.034;2023-02-28T07:11:22;9.00;;;5.32;;
41799;SDS011;27468;47.460;19.034;2023-02-28T07:13:50;10.32;;;5.55;;
41799;SDS011;27468;47.460;19.034;2023-02-28T07:16:17;8.68;;;5.25;;
41799;SDS011;27468;47.460;19.034;2023-02-28T07:18:42;10.00;;;5.30;;
41799;SDS011;27468;47.460;19.034;2023-02-28T07:21:09;9.40;;;5.50;;
41799;SDS011;27468;47.460;19.034;2023-02-28T07:23:35;9.55;;;5.45;;
41799;SDS011;27468;47.460;19.034;2023-02-28T07:26:03;8.85;;;4.70;;
41799;SDS011;27468;47.460;19.034;2023-02-28T07:28:29;8.77;;;4.90;;
41799;SDS011;27468;47.460;19.034;2023-02-28T07:30:54;8.93;;;5.03;;
41799;SDS011;27468;47.460;19.034;2023-02-28T07:33:20;8.95;;;5.45;;
41799;SDS011;27468;47.460;19.034;2023-02-28T07:35:45;8.43;;;4.75;;
41799;SDS011;27468;47.460;19.034;2023-02-28T07:38:11;7.73;;;4.33;;
41799;SDS011;27468;47.460;19.034;2023-02-28T07:40:38;10.20;;;5.07;;
41799;SDS011;27468;47.460;19.034;2023-02-28T07:43:04;10.50;;;4.97;;
41799;SDS011;27468;47.460;19.034;2023-02-28T07:45:30;8.52;;;5.50;;
41799;SDS011;27468;47.460;19.034;2023-02-28T07:47:59;8.07;;;4.68;;
41799;SDS011;27468;47.460;19.034;2023-02-28T07:50:25;8.57;;;4.70;;
41799;SDS011;27468;47.460;19.034;2023-02-28T07:52:54;10.07;;;5.17;;
41799;SDS011;27468;47.460;19.034;2023-02-28T07:55:19;8.80;;;4.72;;
41799;SDS011;27468;47.460;19.034;2023-02-28T07:57:44;10.50;;;5.40;;
41799;SDS011;27468;47.460;19.034;2023-02-28T08:00:10;9.63;;;5.30;;
41799;SDS011;27468;47.460;19.034;2023-02-28T08:02:37;9.10;;;5.50;;
41799;SDS011;27468;47.460;19.034;2023-02-28T08:05:03;8.23;;;5.10;;
41799;SDS011;27468;47.460;19.034;2023-02-28T08:07:29;8.53;;;4.37;;
41799;SDS011;27468;47.460;19.034;2023-02-28T08:09:55;8.03;;;4.60;;
41799;SDS011;27468;47.460;19.034;2023-02-28T08:12:20;8.82;;;4.70;;
41799;SDS011;27468;47.460;19.034;2023-02-28T08:14:46;8.18;;;3.67;;
41799;SDS011;27468;47.460;19.034;2023-02-28T08:17:11;8.63;;;4.60;;
41799;SDS011;27468;47.460;19.034;2023-02-28T08:19:37;7.93;;;4.30;;
41799;SDS011;27468;47.460;19.034;2023-02-28T08:22:03;8.83;;;4.40;;
41799;SDS011;27468;47.460;19.034;2023-02-28T08:24:28;6.82;;;4.20;;
41799;SDS011;27468;47.460;19.034;2023-02-28T08:26:54;8.15;;;4.63;;
41799;SDS011;27468;47.460;19.034;2023-02-28T08:29:20;8.43;;;4.80;;
41799;SDS011;27468;47.460;19.034;2023-02-28T08:31:45;6.95;;;4.57;;
41799;SDS011;27468;47.460;19.034;2023-02-28T08:34:11;8.20;;;4.63;;
41799;SDS011;27468;47.460;19.034;2023-02-28T08:36:39;9.98;;;6.05;;
41799;SDS011;27468;47.460;19.034;2023-02-28T08:39:05;7.07;;;3.92;;
41799;SDS011;27468;47.460;19.034;2023-02-28T08:41:31;7.30;;;4.72;;
41799;SDS011;27468;47.460;19.034;2023-02-28T08:43:57;7.75;;;4.50;;
41799;SDS011;27468;47.460;19.034;2023-02-28T08:46:23;8.38;;;4.40;;
41799;SDS011;27468;47.460;19.034;2023-02-28T08:48:51;8.43;;;5.03;;
41799;SDS011;27468;47.460;19.034;2023-02-28T08:51:18;8.13;;;4.38;;
41799;SDS011;27468;47.460;19.034;2023-02-28T08:56:16;8.13;;;4.50;;
41799;SDS011;27468;47.460;19.034;2023-02-28T08:58:42;8.45;;;4.70;;
41799;SDS011;27468;47.460;19.034;2023-02-28T09:01:13;7.00;;;4.03;;
41799;SDS011;27468;47.460;19.034;2023-02-28T09:03:47;7.20;;;4.25;;
41799;SDS011;27468;47.460;19.034;2023-02-28T09:06:14;8.88;;;4.28;;
41799;SDS011;27468;47.460;19.034;2023-02-28T09:08:41;8.25;;;4.28;;
41799;SDS011;27468;47.460;19.034;2023-02-28T09:11:07;7.45;;;4.65;;
41799;SDS011;27468;47.460;19.034;2023-02-28T09:13:33;9.70;;;4.95;;
41799;SDS011;27468;47.460;19.034;2023-02-28T09:15:59;7.85;;;4.60;;
41799;SDS011;27468;47.460;19.034;2023-02-28T09:18:26;7.30;;;4.80;;
41799;SDS011;27468;47.460;19.034;2023-02-28T09:20:52;7.53;;;4.60;;
41799;SDS011;27468;47.460;19.034;2023-02-28T09:23:17;8.57;;;5.22;;
41799;SDS011;27468;47.460;19.034;2023-02-28T09:25:47;7.38;;;4.57;;
41799;SDS011;27468;47.460;19.034;2023-02-28T09:28:17;8.35;;;4.70;;
41799;SDS011;27468;47.460;19.034;2023-02-28T09:30:47;7.05;;;4.78;;
41799;SDS011;27468;47.460;19.034;2023-02-28T09:33:14;6.65;;;4.22;;
41799;SDS011;27468;47.460;19.034;2023-02-28T09:35:40;7.10;;;4.85;;
41799;SDS011;27468;47.460;19.034;2023-02-28T09:38:06;7.25;;;4.35;;
41799;SDS011;27468;47.460;19.034;2023-02-28T09:40:34;6.70;;;4.60;;
41799;SDS011;27468;47.460;19.034;2023-02-28T09:43:09;7.95;;;4.45;;
41799;SDS011;27468;47.460;19.034;2023-02-28T09:45:39;7.30;;;4.43;;
41799;SDS011;27468;47.460;19.034;2023-02-28T09:48:28;6.53;;;4.30;;
41799;SDS011;27468;47.460;19.034;2023-02-28T09:51:02;8.10;;;4.68;;
41799;SDS011;27468;47.460;19.034;2023-02-28T09:53:33;7.20;;;4.50;;
41799;SDS011;27468;47.460;19.034;2023-02-28T09:56:10;8.50;;;4.55;;
41799;SDS011;27468;47.460;19.034;2023-02-28T09:58:48;8.27;;;4.78;;
41799;SDS011;27468;47.460;19.034;2023-02-28T10:01:24;7.95;;;5.25;;
41799;SDS011;27468;47.460;19.034;2023-02-28T10:06:26;7.13;;;4.72;;
41799;SDS011;27468;47.460;19.034;2023-02-28T10:09:02;9.60;;;5.38;;
41799;SDS011;27468;47.460;19.034;2023-02-28T10:11:34;7.15;;;5.00;;
41799;SDS011;27468;47.460;19.034;2023-02-28T10:14:04;6.28;;;4.30;;
41799;SDS011;27468;47.460;19.034;2023-02-28T10:16:36;7.72;;;4.55;;
41799;SDS011;27468;47.460;19.034;2023-02-28T10:22:08;7.38;;;4.65;;
41799;SDS011;27468;47.460;19.034;2023-02-28T10:24:39;7.43;;;4.97;;
41799;SDS011;27468;47.460;19.034;2023-02-28T10:27:15;8.82;;;4.70;;
41799;SDS011;27468;47.460;19.034;2023-02-28T10:29:44;8.90;;;4.80;;
41799;SDS011;27468;47.460;19.034;2023-02-28T10:32:19;6.68;;;4.50;;
41799;SDS011;27468;47.460;19.034;2023-02-28T10:35:18;6.63;;;4.50;;
41799;SDS011;27468;47.460;19.034;2023-02-28T10:37:47;9.90;;;4.43;;
41799;SDS011;27468;47.460;19.034;2023-02-28T10:42:54;6.22;;;3.92;;
41799;SDS011;27468;47.460;19.034;2023-02-28T10:45:25;8.45;;;5.38;;
41799;SDS011;27468;47.460;19.034;2023-02-28T10:48:03;9.10;;;5.35;;
41799;SDS011;27468;47.460;19.034;2023-02-28T10:50:51;7.53;;;4.20;;
41799;SDS011;27468;47.460;19.034;2023-02-28T10:58:24;7.68;;;4.60;;
41799;SDS011;27468;47.460;19.034;2023-02-28T11:00:52;7.32;;;4.20;;
41799;SDS011;27468;47.460;19.034;2023-02-28T11:03:25;7.57;;;4.60;;
41799;SDS011;27468;47.460;19.034;2023-02-28T11:05:56;6.72;;;4.68;;
41799;SDS011;27468;47.460;19.034;2023-02-28T11:08:22;8.68;;;4.07;;
41799;SDS011;27468;47.460;19.034;2023-02-28T11:10:48;7.05;;;4.88;;
41799;SDS011;27468;47.460;19.034;2023-02-28T11:13:21;8.20;;;4.78;;
41799;SDS011;27468;47.460;19.034;2023-02-28T11:15:57;8.27;;;4.57;;
41799;SDS011;27468;47.460;19.034;2023-02-28T11:18:29;8.15;;;4.60;;
41799;SDS011;27468;47.460;19.034;2023-02-28T11:20:59;9.32;;;5.05;;
41799;SDS011;27468;47.460;19.034;2023-02-28T11:23:27;7.40;;;4.68;;
41799;SDS011;27468;47.460;19.034;2023-02-28T11:25:56;8.60;;;4.75;;
41799;SDS011;27468;47.460;19.034;2023-02-28T11:28:26;6.68;;;4.32;;
41799;SDS011;27468;47.460;19.034;2023-02-28T11:31:04;9.50;;;5.32;;
41799;SDS011;27468;47.460;19.034;2023-02-28T11:33:32;7.45;;;4.80;;
41799;SDS011;27468;47.460;19.034;2023-02-28T11:36:10;7.03;;;5.10;;
41799;SDS011;27468;47.460;19.034;2023-02-28T11:51:31;8.07;;;4.70;;
41799;SDS011;27468;47.460;19.034;2023-02-28T11:54:13;7.13;;;4.80;;
41799;SDS011;27468;47.460;19.034;2023-02-28T11:56:55;8.57;;;4.47;;
41799;SDS011;27468;47.460;19.034;2023-02-28T11:59:49;9.40;;;5.38;;
41799;SDS011;27468;47.460;19.034;2023-02-28T12:02:20;6.38;;;4.60;;
41799;SDS011;27468;47.460;19.034;2023-02-28T12:10:22;11.02;;;5.43;;
41799;SDS011;27468;47.460;19.034;2023-02-28T12:26:38;8.43;;;5.25;;
41799;SDS011;27468;47.460;19.034;2023-02-28T12:29:23;8.00;;;4.75;;
41799;SDS011;27468;47.460;19.034;2023-02-28T12:32:01;7.05;;;5.05;;
41799;SDS011;27468;47.460;19.034;2023-02-28T12:34:33;8.27;;;4.85;;
41799;SDS011;27468;47.460;19.034;2023-02-28T12:37:04;7.63;;;5.43;;
41799;SDS011;27468;47.460;19.034;2023-02-28T12:39:36;8.30;;;4.80;;
41799;SDS011;27468;47.460;19.034;2023-02-28T12:42:09;10.60;;;5.00;;
41799;SDS011;27468;47.460;19.034;2023-02-28T12:47:23;6.60;;;4.10;;
41799;SDS011;27468;47.460;19.034;2023-02-28T12:53:08;8.07;;;4.65;;
41799;SDS011;27468;47.460;19.034;2023-02-28T13:06:38;7.72;;;4.13;;
41799;SDS011;27468;47.460;19.034;2023-02-28T13:09:13;8.05;;;4.30;;
41799;SDS011;27468;47.460;19.034;2023-02-28T13:11:47;6.75;;;4.65;;
41799;SDS011;27468;47.460;19.034;2023-02-28T13:14:20;7.40;;;4.10;;
41799;SDS011;27468;47.460;19.034;2023-02-28T13:19:23;8.85;;;5.10;;
41799;SDS011;27468;47.460;19.034;2023-02-28T13:21:51;7.30;;;4.88;;
41799;SDS011;27468;47.460;19.034;2023-02-28T13:34:35;7.47;;;4.50;;
41799;SDS011;27468;47.460;19.034;2023-02-28T13:39:50;6.30;;;4.10;;
41799;SDS011;27468;47.460;19.034;2023-02-28T14:01:14;6.72;;;4.18;;
41799;SDS011;27468;47.460;19.034;2023-02-28T14:03:45;6.00;;;3.83;;
41799;SDS011;27468;47.460;19.034;2023-02-28T14:06:37;5.60;;;3.45;;
41799;SDS011;27468;47.460;19.034;2023-02-28T14:11:48;6.20;;;3.70;;
41799;SDS011;27468;47.460;19.034;2023-02-28T14:17:22;6.80;;;3.60;;
41799;SDS011;27468;47.460;19.034;2023-02-28T14:19:47;7.03;;;3.83;;
41799;SDS011;27468;47.460;19.034;2023-02-28T14:25:35;5.80;;;3.58;;
41799;SDS011;27468;47.460;19.034;2023-02-28T14:36:27;6.25;;;4.03;;
41799;SDS011;27468;47.460;19.034;2023-02-28T14:39:05;6.53;;;4.07;;
41799;SDS011;27468;47.460;19.034;2023-02-28T14:41:33;7.38;;;3.70;;
41799;SDS011;27468;47.460;19.034;2023-02-28T14:44:02;5.90;;;3.67;;
41799;SDS011;27468;47.460;19.034;2023-02-28T14:46:38;6.32;;;3.92;;
41799;SDS011;27468;47.460;19.034;2023-02-28T14:49:06;12.68;;;3.92;;
41799;SDS011;27468;47.460;19.034;2023-02-28T14:51:37;5.38;;;3.80;;
41799;SDS011;27468;47.460;19.034;2023-02-28T14:54:03;7.82;;;4.05;;
41799;SDS011;27468;47.460;19.034;2023-02-28T14:56:36;6.75;;;4.32;;
41799;SDS011;27468;47.460;19.034;2023-02-28T14:59:03;6.20;;;3.78;;
41799;SDS011;27468;47.460;19.034;2023-02-28T15:01:30;6.50;;;4.22;;
41799;SDS011;27468;47.460;19.034;2023-02-28T15:04:24;6.85;;;3.90;;
41799;SDS011;27468;47.460;19.034;2023-02-28T15:07:12;7.38;;;4.32;;
41799;SDS011;27468;47.460;19.034;2023-02-28T15:09:39;8.20;;;4.82;;
41799;SDS011;27468;47.460;19.034;2023-02-28T15:12:05;6.78;;;4.47;;
41799;SDS011;27468;47.460;19.034;2023-02-28T15:14:30;8.25;;;4.22;;
41799;SDS011;27468;47.460;19.034;2023-02-28T15:16:58;6.97;;;4.28;;
41799;SDS011;27468;47.460;19.034;2023-02-28T15:19:34;5.78;;;3.85;;
41799;SDS011;27468;47.460;19.034;2023-02-28T15:22:05;7.82;;;4.90;;
41799;SDS011;27468;47.460;19.034;2023-02-28T15:24:36;7.15;;;4.55;;
41799;SDS011;27468;47.460;19.034;2023-02-28T15:27:06;6.50;;;4.40;;
41799;SDS011;27468;47.460;19.034;2023-02-28T15:29:42;6.72;;;4.70;;
41799;SDS011;27468;47.460;19.034;2023-02-28T15:32:21;8.93;;;4.50;;
41799;SDS011;27468;47.460;19.034;2023-02-28T15:34:50;9.27;;;5.07;;
41799;SDS011;27468;47.460;19.034;2023-02-28T15:40:43;8.77;;;5.53;;
41799;SDS011;27468;47.460;19.034;2023-02-28T15:45:47;9.45;;;5.70;;
41799;SDS011;27468;47.460;19.034;2023-02-28T15:50:52;10.13;;;4.95;;
41799;SDS011;27468;47.460;19.034;2023-02-28T15:53:21;9.50;;;5.53;;
41799;SDS011;27468;47.460;19.034;2023-02-28T15:55:54;9.45;;;5.38;;
41799;SDS011;27468;47.460;19.034;2023-02-28T15:58:23;8.10;;;5.22;;
41799;SDS011;27468;47.460;19.034;2023-02-28T16:01:00;8.00;;;5.03;;
41799;SDS011;27468;47.460;19.034;2023-02-28T16:03:35;8.60;;;5.32;;
41799;SDS011;27468;47.460;19.034;2023-02-28T16:11:23;8.25;;;5.47;;
41799;SDS011;27468;47.460;19.034;2023-02-28T16:13:49;9.93;;;5.68;;
41799;SDS011;27468;47.460;19.034;2023-02-28T16:16:20;10.93;;;5.97;;
41799;SDS011;27468;47.460;19.034;2023-02-28T16:18:47;9.18;;;5.65;;
41799;SDS011;27468;47.460;19.034;2023-02-28T16:21:13;10.15;;;6.00;;
41799;SDS011;27468;47.460;19.034;2023-02-28T16:23:39;10.73;;;6.68;;
41799;SDS011;27468;47.460;19.034;2023-02-28T16:26:04;10.98;;;6.82;;
41799;SDS011;27468;47.460;19.034;2023-02-28T16:28:33;11.93;;;6.45;;
41799;SDS011;27468;47.460;19.034;2023-02-28T16:31:02;10.32;;;6.30;;
41799;SDS011;27468;47.460;19.034;2023-02-28T16:33:29;9.57;;;5.93;;
41799;SDS011;27468;47.460;19.034;2023-02-28T16:35:55;11.18;;;6.38;;
41799;SDS011;27468;47.460;19.034;2023-02-28T16:38:21;12.82;;;6.68;;
41799;SDS011;27468;47.460;19.034;2023-02-28T16:40:48;12.65;;;6.68;;
41799;SDS011;27468;47.460;19.034;2023-02-28T16:43:15;8.80;;;5.45;;
41799;SDS011;27468;47.460;19.034;2023-02-28T16:45:44;11.55;;;6.20;;
41799;SDS011;27468;47.460;19.034;2023-02-28T16:48:14;9.77;;;5.68;;
41799;SDS011;27468;47.460;19.034;2023-02-28T16:50:41;9.95;;;6.07;;
41799;SDS011;27468;47.460;19.034;2023-02-28T16:53:07;10.02;;;5.50;;
41799;SDS011;27468;47.460;19.034;2023-02-28T16:55:33;11.50;;;6.32;;
41799;SDS011;27468;47.460;19.034;2023-02-28T16:58:00;10.65;;;6.00;;
41799;SDS011;27468;47.460;19.034;2023-02-28T17:00:26;11.57;;;6.05;;
41799;SDS011;27468;47.460;19.034;2023-02-28T17:02:54;10.32;;;6.22;;
41799;SDS011;27468;47.460;19.034;2023-02-28T17:05:20;11.98;;;6.63;;
41799;SDS011;27468;47.460;19.034;2023-02-28T17:07:47;10.98;;;6.50;;
41799;SDS011;27468;47.460;19.034;2023-02-28T17:10:16;9.30;;;5.78;;
41799;SDS011;27468;47.460;19.034;2023-02-28T17:12:43;11.20;;;6.70;;
41799;SDS011;27468;47.460;19.034;2023-02-28T17:15:13;10.55;;;6.90;;
41799;SDS011;27468;47.460;19.034;2023-02-28T17:17:39;12.38;;;6.78;;
41799;SDS011;27468;47.460;19.034;2023-02-28T17:20:09;11.98;;;6.93;;
41799;SDS011;27468;47.460;19.034;2023-02-28T17:22:37;11.65;;;6.65;;
41799;SDS011;27468;47.460;19.034;2023-02-28T17:25:03;10.10;;;6.75;;
41799;SDS011;27468;47.460;19.034;2023-02-28T17:27:30;10.65;;;6.93;;
41799;SDS011;27468;47.460;19.034;2023-02-28T17:29:55;11.48;;;6.95;;
41799;SDS011;27468;47.460;19.034;2023-02-28T17:32:21;14.10;;;7.45;;
41799;SDS011;27468;47.460;19.034;2023-02-28T17:34:46;13.38;;;7.20;;